createdAt,value
2022-08-17T00:01:52.896Z,10.67
2022-08-17T00:04:24.738Z,10.70
2022-08-17T00:09:23.062Z,8.68
2022-08-17T00:12:41.925Z,10.20
2022-08-17T00:14:42.153Z,9.88
2022-08-17T00:17:11.268Z,9.93
2022-08-17T00:19:42.722Z,10.07
2022-08-17T00:22:32.814Z,9.55
2022-08-17T00:25:03.613Z,9.60
2022-08-17T00:27:35.343Z,10.23
2022-08-17T00:30:06.658Z,9.63
2022-08-17T00:33:14.307Z,10.30
2022-08-17T00:35:30.996Z,8.70
2022-08-17T00:38:00.180Z,9.40
2022-08-17T00:40:39.869Z,9.57
2022-08-17T00:43:19.512Z,9.90
2022-08-17T00:45:49.644Z,8.48
2022-08-17T00:48:29.017Z,8.73
2022-08-17T00:51:10.677Z,8.48
2022-08-17T00:53:44.523Z,8.88
2022-08-17T00:56:19.159Z,8.90
2022-08-17T00:58:49.243Z,9.20
2022-08-17T01:01:21.835Z,9.25
2022-08-17T01:03:53.531Z,9.10
2022-08-17T01:06:30.169Z,8.82
2022-08-17T01:09:03.081Z,8.63
2022-08-17T01:11:35.847Z,9.27
2022-08-17T01:14:05.463Z,9.13
2022-08-17T01:16:34.779Z,8.57
2022-08-17T01:19:08.613Z,9.38
2022-08-17T01:21:47.120Z,8.68
2022-08-17T01:24:19.570Z,8.65
2022-08-17T01:26:49.871Z,8.55
2022-08-17T01:29:20.694Z,8.82
2022-08-17T01:31:55.054Z,9.13
2022-08-17T01:34:24.961Z,8.18
2022-08-17T01:39:40.378Z,8.15
2022-08-17T01:42:17.650Z,8.00
2022-08-17T01:44:47.090Z,8.77
2022-08-17T01:47:16.261Z,9.32
2022-08-17T01:49:49.993Z,8.70
2022-08-17T01:52:21.603Z,7.90
2022-08-17T01:54:55.929Z,7.95
2022-08-17T01:57:25.084Z,8.05
2022-08-17T01:59:54.664Z,8.02
2022-08-17T02:02:31.304Z,8.98
2022-08-17T02:05:01.016Z,8.43
2022-08-17T02:07:32.070Z,8.38
2022-08-17T02:10:23.419Z,7.97
2022-08-17T02:12:52.771Z,8.07
2022-08-17T02:15:23.243Z,8.80
2022-08-17T02:17:54.816Z,9.02
2022-08-17T02:20:41.293Z,7.28
2022-08-17T02:23:14.079Z,8.27
2022-08-17T02:25:50.582Z,8.57
2022-08-17T02:28:20.228Z,8.30
2022-08-17T02:30:50.154Z,8.88
2022-08-17T02:33:41.991Z,8.05
2022-08-17T02:36:14.395Z,8.52
2022-08-17T02:38:44.345Z,8.20
2022-08-17T02:41:16.148Z,8.75
2022-08-17T02:43:48.028Z,8.35
2022-08-17T02:46:19.019Z,9.15
2022-08-17T02:48:48.421Z,8.07
2022-08-17T02:51:18.810Z,9.65
2022-08-17T02:53:48.726Z,8.68
2022-08-17T02:56:19.929Z,10.77
2022-08-17T02:58:49.226Z,9.75
2022-08-17T03:01:18.481Z,8.40
2022-08-17T03:03:47.646Z,9.55
2022-08-17T03:06:16.847Z,8.90
2022-08-17T03:08:46.265Z,8.98
2022-08-17T03:11:15.813Z,9.88
2022-08-17T03:13:47.123Z,10.80
2022-08-17T03:16:16.432Z,8.82
2022-08-17T03:18:45.605Z,8.93
2022-08-17T03:21:14.878Z,10.10
2022-08-17T03:23:44.019Z,10.52
2022-08-17T03:26:15.545Z,11.15
2022-08-17T03:28:47.576Z,11.85
2022-08-17T03:31:18.024Z,11.13
2022-08-17T03:33:47.908Z,11.73
2022-08-17T03:36:17.109Z,12.50
2022-08-17T03:38:46.672Z,12.57
2022-08-17T03:41:16.157Z,11.32
2022-08-17T03:43:47.520Z,9.77
2022-08-17T03:46:35.686Z,10.40
2022-08-17T03:49:19.512Z,9.32
2022-08-17T03:52:01.905Z,11.32
2022-08-17T03:54:44.103Z,11.80
2022-08-17T03:57:13.821Z,11.05
2022-08-17T03:59:45.729Z,11.15
2022-08-17T04:02:19.234Z,11.65
2022-08-17T04:04:50.824Z,11.85
2022-08-17T04:07:21.029Z,11.15
2022-08-17T04:09:50.688Z,12.65
2022-08-17T04:12:22.418Z,12.20
2022-08-17T04:14:54.980Z,12.15
2022-08-17T04:17:26.760Z,13.27
2022-08-17T04:19:58.066Z,13.50
2022-08-17T04:22:30.462Z,14.13
2022-08-17T04:25:09.574Z,15.50
2022-08-17T04:27:39.999Z,16.08
2022-08-17T04:30:13.218Z,16.55
2022-08-17T04:33:00.626Z,18.10
2022-08-17T04:35:38.345Z,18.08
2022-08-17T04:38:08.268Z,16.45
2022-08-17T04:40:51.417Z,16.00
2022-08-17T04:43:23.542Z,15.60
2022-08-17T04:45:58.540Z,15.88
2022-08-17T04:48:36.381Z,15.32
2022-08-17T04:51:10.135Z,15.38
2022-08-17T04:53:41.140Z,14.93
2022-08-17T04:56:15.936Z,15.57
2022-08-17T04:58:47.449Z,15.07
2022-08-17T05:01:24.127Z,14.20
2022-08-17T05:03:54.393Z,14.45
2022-08-17T05:06:31.587Z,14.00
2022-08-17T05:09:03.526Z,12.48
2022-08-17T05:11:35.508Z,13.45
2022-08-17T05:14:05.677Z,15.02
2022-08-17T05:16:36.742Z,13.98
2022-08-17T05:19:06.886Z,13.80
2022-08-17T05:21:36.169Z,13.57
2022-08-17T05:24:06.079Z,13.48
2022-08-17T05:26:56.105Z,13.23
2022-08-17T05:29:35.249Z,13.18
2022-08-17T05:32:37.975Z,13.60
2022-08-17T05:35:02.449Z,12.52
2022-08-17T05:37:33.007Z,12.70
2022-08-17T05:40:02.446Z,13.20
2022-08-17T05:42:32.598Z,12.95
2022-08-17T05:45:02.558Z,13.20
2022-08-17T05:47:35.071Z,12.63
2022-08-17T05:50:09.637Z,13.27
2022-08-17T05:52:47.879Z,13.05
2022-08-17T05:55:27.687Z,13.40
2022-08-17T05:58:09.557Z,11.70
2022-08-17T06:00:44.908Z,13.50
2022-08-17T06:03:41.494Z,13.30
2022-08-17T06:06:32.560Z,12.43
2022-08-17T06:09:24.756Z,13.18
2022-08-17T06:11:59.986Z,12.88
2022-08-17T06:14:43.158Z,13.45
2022-08-17T06:17:15.825Z,12.50
2022-08-17T06:19:54.068Z,13.10
2022-08-17T06:22:28.072Z,13.65
2022-08-17T06:25:04.652Z,11.43
2022-08-17T06:27:44.759Z,12.93
2022-08-17T06:30:19.896Z,12.52
2022-08-17T06:32:52.293Z,12.57
2022-08-17T06:35:31.965Z,11.88
2022-08-17T06:38:36.882Z,11.63
2022-08-17T06:41:11.032Z,11.10
2022-08-17T06:43:53.383Z,11.35
2022-08-17T06:46:27.183Z,11.90
2022-08-17T06:49:11.280Z,11.52
2022-08-17T06:51:47.599Z,10.45
2022-08-17T06:54:27.171Z,9.57
2022-08-17T06:57:02.422Z,10.98
2022-08-17T06:59:55.456Z,10.00
2022-08-17T07:02:52.523Z,9.57
2022-08-17T07:05:27.203Z,9.98
2022-08-17T07:08:04.745Z,10.18
2022-08-17T07:10:41.128Z,9.77
2022-08-17T07:13:28.953Z,9.52
2022-08-17T07:16:08.257Z,9.90
2022-08-17T07:18:37.542Z,8.52
2022-08-17T07:21:26.232Z,8.38
2022-08-17T07:24:29.883Z,7.90
2022-08-17T07:27:15.780Z,6.78
2022-08-17T07:29:53.223Z,7.90
2022-08-17T07:32:26.184Z,6.95
2022-08-17T07:35:15.399Z,6.47
2022-08-17T07:37:50.929Z,6.45
2022-08-17T07:40:29.344Z,6.28
2022-08-17T07:43:23.025Z,5.80
2022-08-17T07:46:13.182Z,5.80
2022-08-17T07:48:44.788Z,5.20
2022-08-17T07:51:29.646Z,4.80
2022-08-17T07:54:14.000Z,5.35
2022-08-17T07:56:51.149Z,5.30
2022-08-17T07:59:23.929Z,4.85
2022-08-17T08:02:08.653Z,4.45
2022-08-17T08:04:59.707Z,4.32
2022-08-17T08:07:34.285Z,4.00
2022-08-17T08:10:08.745Z,4.60
2022-08-17T08:12:43.362Z,4.55
2022-08-17T08:15:18.313Z,4.07
2022-08-17T08:17:51.657Z,4.03
2022-08-17T08:20:52.594Z,4.53
2022-08-17T08:23:26.358Z,3.78
2022-08-17T08:26:06.365Z,3.65
2022-08-17T08:28:48.957Z,4.18
2022-08-17T08:31:27.229Z,3.72
2022-08-17T08:34:44.457Z,3.55
2022-08-17T08:37:16.450Z,3.90
2022-08-17T08:39:57.505Z,3.55
2022-08-17T08:42:34.214Z,3.50
2022-08-17T08:45:13.265Z,4.22
2022-08-17T08:48:05.261Z,3.88
2022-08-17T08:50:49.977Z,3.97
2022-08-17T08:53:31.699Z,4.13
2022-08-17T08:56:05.344Z,3.55
2022-08-17T08:58:43.245Z,3.67
2022-08-17T09:01:24.044Z,3.67
2022-08-17T09:04:25.245Z,4.00
2022-08-17T09:07:08.700Z,4.00
2022-08-17T09:09:50.282Z,3.88
2022-08-17T09:12:27.241Z,4.07
2022-08-17T09:15:03.244Z,3.75
2022-08-17T09:17:47.920Z,4.05
2022-08-17T09:20:27.557Z,4.07
2022-08-17T09:23:02.924Z,3.80
2022-08-17T09:25:36.939Z,3.85
2022-08-17T09:28:12.935Z,4.15
2022-08-17T09:30:46.112Z,3.95
2022-08-17T09:33:22.727Z,4.03
2022-08-17T09:35:57.461Z,4.15
2022-08-17T09:38:39.077Z,3.90
2022-08-17T09:41:18.280Z,4.03
2022-08-17T09:43:55.837Z,3.80
2022-08-17T09:46:32.803Z,3.80
2022-08-17T09:49:12.436Z,3.60
2022-08-17T09:51:48.287Z,3.55
2022-08-17T09:54:38.691Z,4.03
2022-08-17T09:57:31.338Z,4.13
2022-08-17T10:00:18.443Z,3.97
2022-08-17T10:03:11.733Z,3.97
2022-08-17T10:05:50.907Z,4.40
2022-08-17T10:08:37.453Z,4.20
2022-08-17T10:11:22.648Z,3.95
2022-08-17T10:14:36.006Z,4.40
2022-08-17T10:17:05.336Z,4.65
2022-08-17T10:19:44.135Z,5.13
2022-08-17T10:22:42.904Z,4.13
2022-08-17T10:25:48.630Z,4.95
2022-08-17T10:28:28.815Z,5.07
2022-08-17T10:31:33.177Z,5.22
2022-08-17T10:34:04.855Z,5.50
2022-08-17T10:36:47.100Z,5.80
2022-08-17T10:39:31.151Z,4.55
2022-08-17T10:42:06.043Z,4.47
2022-08-17T10:44:46.889Z,5.03
2022-08-17T10:47:19.417Z,4.90
2022-08-17T10:49:53.193Z,5.78
2022-08-17T10:52:53.109Z,5.75
2022-08-17T10:55:25.415Z,5.15
2022-08-17T10:58:20.727Z,4.88
2022-08-17T11:01:01.663Z,5.63
2022-08-17T11:03:33.011Z,6.57
2022-08-17T11:09:13.181Z,5.43
2022-08-17T11:12:08.703Z,4.47
2022-08-17T11:14:56.067Z,5.65
2022-08-17T11:17:49.307Z,5.63
2022-08-17T11:20:48.638Z,6.75
2022-08-17T11:23:32.970Z,6.47
2022-08-17T11:26:08.183Z,6.55
2022-08-17T11:28:54.114Z,6.03
2022-08-17T11:31:39.321Z,4.75
2022-08-17T11:34:19.347Z,6.05
2022-08-17T11:37:11.839Z,5.95
2022-08-17T11:40:05.626Z,5.05
2022-08-17T11:42:48.373Z,6.38
2022-08-17T11:45:35.596Z,6.13
2022-08-17T11:48:28.846Z,7.68
2022-08-17T11:51:24.849Z,9.52
2022-08-17T11:54:34.084Z,9.07
2022-08-17T11:57:41.298Z,8.80
2022-08-17T12:00:32.211Z,6.70
2022-08-17T12:03:26.011Z,7.50
2022-08-17T12:06:05.771Z,7.15
2022-08-17T12:08:36.223Z,8.10
2022-08-17T12:11:11.723Z,8.20
2022-08-17T12:13:49.606Z,8.40
2022-08-17T12:16:21.989Z,8.68
2022-08-17T12:18:57.619Z,8.85
2022-08-17T12:21:37.716Z,8.65
2022-08-17T12:24:16.548Z,7.95
2022-08-17T12:26:54.142Z,11.00
2022-08-17T12:29:38.769Z,11.00
2022-08-17T12:32:17.072Z,9.38
2022-08-17T12:34:51.423Z,8.27
2022-08-17T12:37:24.156Z,6.57
2022-08-17T12:39:59.181Z,6.25
2022-08-17T12:42:34.629Z,5.20
2022-08-17T12:45:07.132Z,4.82
2022-08-17T12:47:39.107Z,5.95
2022-08-17T12:57:35.244Z,9.88
2022-08-17T13:00:12.062Z,11.50
2022-08-17T13:02:46.751Z,8.20
2022-08-17T13:05:29.614Z,9.57
2022-08-17T13:08:04.303Z,8.10
2022-08-17T13:10:36.459Z,9.35
2022-08-17T13:13:22.810Z,8.80
2022-08-17T13:15:55.871Z,6.70
2022-08-17T13:18:39.260Z,9.68
2022-08-17T13:21:13.599Z,9.60
2022-08-17T13:23:53.576Z,9.05
2022-08-17T13:26:33.173Z,8.23
2022-08-17T13:29:08.050Z,7.70
2022-08-17T13:31:52.023Z,6.35
2022-08-17T13:35:12.012Z,5.75
2022-08-17T13:37:35.524Z,4.30
2022-08-17T13:40:29.929Z,5.15
2022-08-17T13:43:01.557Z,5.53
2022-08-17T13:45:50.585Z,4.10
2022-08-17T13:48:31.724Z,4.05
2022-08-17T13:51:30.097Z,4.13
2022-08-17T13:54:02.959Z,5.15
2022-08-17T13:56:39.489Z,4.32
2022-08-17T13:59:12.138Z,4.32
2022-08-17T14:01:50.940Z,5.07
2022-08-17T14:06:55.951Z,4.38
2022-08-17T14:09:27.967Z,4.70
2022-08-17T14:11:59.797Z,4.32
2022-08-17T14:14:30.316Z,4.15
2022-08-17T14:17:01.629Z,4.80
2022-08-17T14:19:31.244Z,4.20
2022-08-17T14:22:00.717Z,3.83
2022-08-17T14:24:34.264Z,3.10
2022-08-17T14:27:06.236Z,3.47
2022-08-17T14:29:36.418Z,3.72
2022-08-17T14:32:23.278Z,4.50
2022-08-17T14:34:54.369Z,3.45
2022-08-17T14:37:27.542Z,4.82
2022-08-17T14:39:57.857Z,3.40
2022-08-17T14:42:29.282Z,3.45
2022-08-17T14:44:59.730Z,4.47
2022-08-17T14:47:30.867Z,4.68
2022-08-17T14:50:01.668Z,5.03
2022-08-17T14:52:33.189Z,4.57
2022-08-17T14:55:02.438Z,4.43
2022-08-17T14:57:34.450Z,5.13
2022-08-17T15:00:04.431Z,4.47
2022-08-17T15:02:45.869Z,4.85
2022-08-17T15:05:17.292Z,5.67
2022-08-17T15:07:46.633Z,4.60
2022-08-17T15:10:17.323Z,4.35
2022-08-17T15:12:46.667Z,3.97
2022-08-17T15:15:17.851Z,4.25
2022-08-17T15:20:22.705Z,5.13
2022-08-17T15:22:54.599Z,4.57
2022-08-17T15:25:25.127Z,4.47
2022-08-17T15:27:55.568Z,4.00
2022-08-17T15:30:26.190Z,5.37
2022-08-17T15:32:59.103Z,4.63
2022-08-17T15:35:32.489Z,4.82
2022-08-17T15:38:10.165Z,4.80
2022-08-17T15:40:45.229Z,4.07
2022-08-17T15:43:16.520Z,4.90
2022-08-17T15:45:54.855Z,4.85
2022-08-17T15:48:42.676Z,4.68
2022-08-17T15:51:14.811Z,5.57
2022-08-17T15:53:45.751Z,5.30
2022-08-17T15:56:16.304Z,4.70
2022-08-17T15:58:47.298Z,4.75
2022-08-17T16:03:01.678Z,4.78
2022-08-17T16:04:30.639Z,5.38
2022-08-17T16:07:02.199Z,4.72
2022-08-17T16:09:31.788Z,4.90
2022-08-17T16:12:10.908Z,5.47
2022-08-17T16:14:40.198Z,4.97
2022-08-17T16:17:38.667Z,5.40
2022-08-17T16:20:01.398Z,5.10
2022-08-17T16:22:34.099Z,5.07
2022-08-17T16:25:07.157Z,5.28
2022-08-17T16:27:36.601Z,4.55
2022-08-17T16:30:07.819Z,5.00
2022-08-17T16:32:37.182Z,5.22
2022-08-17T16:35:14.386Z,4.47
2022-08-17T16:37:45.395Z,4.50
2022-08-17T16:40:19.093Z,4.60
2022-08-17T16:42:49.921Z,5.90
2022-08-17T16:45:24.176Z,5.05
2022-08-17T16:47:58.696Z,5.07
2022-08-17T16:50:32.874Z,5.47
2022-08-17T16:53:07.345Z,5.28
2022-08-17T16:55:37.418Z,5.78
2022-08-17T16:58:08.693Z,5.65
2022-08-17T17:03:20.127Z,4.93
2022-08-17T17:06:07.651Z,5.45
2022-08-17T17:08:44.224Z,4.95
2022-08-17T17:11:18.749Z,5.40
2022-08-17T17:13:53.157Z,5.85
2022-08-17T17:16:30.235Z,5.90
2022-08-17T17:19:10.143Z,4.97
2022-08-17T17:21:49.127Z,4.97
2022-08-17T17:24:26.010Z,5.15
2022-08-17T17:27:12.604Z,5.63
2022-08-17T17:29:56.737Z,6.30
2022-08-17T17:32:33.188Z,5.57
2022-08-17T17:35:11.228Z,4.63
2022-08-17T17:37:49.188Z,6.30
2022-08-17T17:40:23.473Z,5.03
2022-08-17T17:42:55.552Z,5.00
2022-08-17T17:45:27.423Z,5.65
2022-08-17T17:47:56.786Z,5.55
2022-08-17T17:50:40.998Z,5.15
2022-08-17T17:53:35.237Z,6.43
2022-08-17T17:56:44.131Z,5.57
2022-08-17T17:59:23.497Z,6.05
2022-08-17T18:02:02.683Z,6.35
2022-08-17T18:04:36.445Z,5.78
2022-08-17T18:07:19.711Z,6.50
2022-08-17T18:10:02.708Z,6.70
2022-08-17T18:12:39.744Z,6.93
2022-08-17T18:15:24.353Z,6.35
2022-08-17T18:18:33.200Z,6.10
2022-08-17T18:21:07.121Z,7.05
2022-08-17T18:23:36.506Z,7.03
2022-08-17T18:26:08.671Z,7.10
2022-08-17T18:28:43.770Z,7.97
2022-08-17T18:31:18.947Z,6.88
2022-08-17T18:33:50.430Z,7.00
2022-08-17T18:39:17.277Z,6.90
2022-08-17T18:41:50.378Z,7.18
2022-08-17T18:44:28.679Z,5.82
2022-08-17T18:47:14.357Z,6.90
2022-08-17T18:49:44.824Z,6.78
2022-08-17T18:52:18.637Z,7.07
2022-08-17T18:55:04.815Z,7.90
2022-08-17T18:57:38.281Z,6.68
2022-08-17T19:00:14.793Z,7.70
2022-08-17T19:02:56.052Z,6.80
2022-08-17T19:05:34.591Z,7.63
2022-08-17T19:08:35.234Z,7.80
2022-08-17T19:11:09.253Z,7.05
2022-08-17T19:13:44.982Z,8.07
2022-08-17T19:16:20.444Z,7.85
2022-08-17T19:18:54.868Z,7.53
2022-08-17T19:21:29.076Z,8.18
2022-08-17T19:24:07.374Z,7.63
2022-08-17T19:26:54.799Z,8.63
2022-08-17T19:29:35.045Z,9.15
2022-08-17T19:32:09.436Z,8.27
2022-08-17T19:34:44.214Z,8.70
2022-08-17T19:37:23.038Z,7.88
2022-08-17T19:40:04.774Z,7.90
2022-08-17T19:42:47.282Z,8.85
2022-08-17T19:45:35.009Z,8.80
2022-08-17T19:48:16.171Z,9.02
2022-08-17T19:50:54.174Z,8.48
2022-08-17T19:54:01.671Z,8.45
2022-08-17T19:56:32.136Z,8.95
2022-08-17T19:59:10.195Z,8.82
2022-08-17T20:01:50.009Z,8.38
2022-08-17T20:04:32.902Z,8.18
2022-08-17T20:07:09.599Z,9.05
2022-08-17T20:09:41.460Z,9.18
2022-08-17T20:12:16.021Z,9.05
2022-08-17T20:14:53.692Z,9.27
2022-08-17T20:17:32.654Z,8.35
2022-08-17T20:20:19.949Z,9.10
2022-08-17T20:22:55.538Z,8.13
2022-08-17T20:25:33.298Z,8.75
2022-08-17T20:28:08.251Z,8.57
2022-08-17T20:30:41.266Z,8.50
2022-08-17T20:33:26.301Z,8.38
2022-08-17T20:36:16.474Z,8.20
2022-08-17T20:38:48.385Z,7.63
2022-08-17T20:41:20.433Z,7.85
2022-08-17T20:44:04.435Z,7.50
2022-08-17T20:46:57.952Z,8.23
2022-08-17T20:49:41.999Z,7.25
2022-08-17T20:52:13.254Z,7.53
2022-08-17T20:54:54.562Z,7.68
2022-08-17T20:57:51.356Z,6.85
2022-08-17T21:00:44.328Z,7.45
2022-08-17T21:03:51.807Z,6.93
2022-08-17T21:06:30.375Z,6.82
2022-08-17T21:09:20.969Z,6.32
2022-08-17T21:12:05.468Z,7.18
2022-08-17T21:14:57.543Z,6.78
2022-08-17T21:17:49.054Z,6.97
2022-08-17T21:20:34.232Z,6.18
2022-08-17T21:23:22.461Z,6.03
2022-08-17T21:26:07.179Z,6.35
2022-08-17T21:29:01.322Z,6.57
2022-08-17T21:31:36.943Z,6.10
2022-08-17T21:34:29.626Z,6.55
2022-08-17T21:37:34.442Z,6.53
2022-08-17T21:40:24.052Z,6.60
2022-08-17T21:42:57.674Z,6.75
2022-08-17T21:45:31.309Z,7.07
2022-08-17T21:48:14.981Z,6.93
2022-08-17T21:50:49.489Z,7.10
2022-08-17T21:53:32.216Z,6.63
2022-08-17T21:56:05.321Z,6.60
2022-08-17T21:58:39.757Z,6.47
2022-08-17T22:01:26.420Z,6.75
2022-08-17T22:04:08.168Z,6.07
2022-08-17T22:06:41.627Z,6.03
2022-08-17T22:09:18.030Z,6.85
2022-08-17T22:11:59.303Z,6.65
2022-08-17T22:14:52.553Z,6.93
2022-08-17T22:17:24.730Z,6.00
2022-08-17T22:19:56.924Z,7.25
2022-08-17T22:22:56.219Z,6.57
2022-08-17T22:25:25.894Z,7.50
2022-08-17T22:28:01.197Z,7.20
2022-08-17T22:30:36.313Z,7.30
2022-08-17T22:33:37.061Z,6.78
2022-08-17T22:36:24.038Z,7.50
2022-08-17T22:38:55.739Z,6.78
2022-08-17T22:41:34.650Z,7.35
2022-08-17T22:44:29.094Z,7.20
2022-08-17T22:47:06.279Z,7.10
2022-08-17T22:49:54.154Z,7.05
2022-08-17T22:52:56.006Z,7.10
2022-08-17T22:55:39.559Z,7.15
2022-08-17T22:58:30.632Z,7.93
2022-08-17T23:01:26.078Z,6.72
2022-08-17T23:03:57.088Z,6.63
2022-08-17T23:06:26.373Z,7.55
2022-08-17T23:08:57.823Z,7.20
2022-08-17T23:11:36.619Z,7.13
2022-08-17T23:14:21.231Z,7.10
2022-08-17T23:16:52.734Z,6.95
2022-08-17T23:19:23.326Z,7.65
2022-08-17T23:21:54.941Z,7.47
2022-08-17T23:26:54.296Z,6.53
2022-08-17T23:29:23.559Z,6.43
2022-08-17T23:31:57.312Z,6.55
2022-08-17T23:34:27.644Z,7.55
2022-08-17T23:36:57.587Z,6.53
2022-08-17T23:39:28.094Z,5.82
2022-08-17T23:41:58.233Z,6.05
2022-08-17T23:44:33.141Z,6.47
2022-08-17T23:47:07.421Z,6.72
2022-08-17T23:49:41.103Z,6.75
2022-08-17T23:52:15.038Z,7.60
2022-08-17T23:54:48.375Z,7.60
2022-08-17T23:57:20.456Z,7.95
